sensor_id;sensor_type;location;lat;lon;timestamp;P1;durP1;ratioP1;P2;durP2;ratioP2
49842;SDS011;55559;48.898;9.184;2023-07-02T00:02:20;7.35;;;1.27;;
49842;SDS011;55559;48.898;9.184;2023-07-02T00:04:47;3.50;;;1.20;;
49842;SDS011;55559;48.898;9.184;2023-07-02T00:07:15;4.88;;;1.05;;
49842;SDS011;55559;48.898;9.184;2023-07-02T00:09:44;5.35;;;1.30;;
49842;SDS011;55559;48.898;9.184;2023-07-02T00:12:11;3.42;;;1.02;;
49842;SDS011;55559;48.898;9.184;2023-07-02T00:14:40;2.17;;;1.20;;
49842;SDS011;55559;48.898;9.184;2023-07-02T00:17:07;1.50;;;0.88;;
49842;SDS011;55559;48.898;9.184;2023-07-02T00:19:37;3.83;;;1.10;;
49842;SDS011;55559;48.898;9.184;2023-07-02T00:22:07;7.93;;;1.10;;
49842;SDS011;55559;48.898;9.184;2023-07-02T00:24:34;3.45;;;1.48;;
49842;SDS011;55559;48.898;9.184;2023-07-02T00:27:03;4.97;;;1.15;;
49842;SDS011;55559;48.898;9.184;2023-07-02T00:29:31;4.30;;;1.60;;
49842;SDS011;55559;48.898;9.184;2023-07-02T00:31:59;3.30;;;1.25;;
49842;SDS011;55559;48.898;9.184;2023-07-02T00:34:28;8.27;;;1.48;;
49842;SDS011;55559;48.898;9.184;2023-07-02T00:36:55;2.38;;;1.13;;
49842;SDS011;55559;48.898;9.184;2023-07-02T00:39:23;3.58;;;1.08;;
49842;SDS011;55559;48.898;9.184;2023-07-02T00:41:50;6.45;;;1.08;;
49842;SDS011;55559;48.898;9.184;2023-07-02T00:44:19;2.47;;;1.30;;
49842;SDS011;55559;48.898;9.184;2023-07-02T00:46:46;2.58;;;1.10;;
49842;SDS011;55559;48.898;9.184;2023-07-02T00:49:14;11.57;;;1.42;;
49842;SDS011;55559;48.898;9.184;2023-07-02T00:51:42;4.70;;;1.10;;
49842;SDS011;55559;48.898;9.184;2023-07-02T00:54:09;2.95;;;1.50;;
49842;SDS011;55559;48.898;9.184;2023-07-02T00:56:37;4.40;;;1.30;;
49842;SDS011;55559;48.898;9.184;2023-07-02T00:59:04;2.67;;;1.00;;
49842;SDS011;55559;48.898;9.184;2023-07-02T01:01:34;2.42;;;1.30;;
49842;SDS011;55559;48.898;9.184;2023-07-02T01:04:04;8.38;;;0.90;;
49842;SDS011;55559;48.898;9.184;2023-07-02T01:06:35;4.50;;;1.10;;
49842;SDS011;55559;48.898;9.184;2023-07-02T01:09:05;5.60;;;0.90;;
49842;SDS011;55559;48.898;9.184;2023-07-02T01:11:34;3.40;;;1.33;;
49842;SDS011;55559;48.898;9.184;2023-07-02T01:14:05;4.85;;;0.90;;
49842;SDS011;55559;48.898;9.184;2023-07-02T01:16:37;4.88;;;1.05;;
49842;SDS011;55559;48.898;9.184;2023-07-02T01:19:11;3.08;;;0.98;;
49842;SDS011;55559;48.898;9.184;2023-07-02T01:24:13;5.47;;;1.42;;
49842;SDS011;55559;48.898;9.184;2023-07-02T01:26:41;3.67;;;1.00;;
49842;SDS011;55559;48.898;9.184;2023-07-02T01:29:15;3.25;;;1.05;;
49842;SDS011;55559;48.898;9.184;2023-07-02T01:31:43;1.65;;;0.88;;
49842;SDS011;55559;48.898;9.184;2023-07-02T01:34:11;2.30;;;1.08;;
49842;SDS011;55559;48.898;9.184;2023-07-02T01:36:39;2.40;;;0.98;;
49842;SDS011;55559;48.898;9.184;2023-07-02T01:39:08;1.17;;;0.73;;
49842;SDS011;55559;48.898;9.184;2023-07-02T01:41:37;2.22;;;1.15;;
49842;SDS011;55559;48.898;9.184;2023-07-02T01:44:09;2.70;;;0.80;;
49842;SDS011;55559;48.898;9.184;2023-07-02T01:46:37;6.43;;;1.13;;
49842;SDS011;55559;48.898;9.184;2023-07-02T01:49:04;5.13;;;0.90;;
49842;SDS011;55559;48.898;9.184;2023-07-02T01:51:32;9.27;;;1.73;;
49842;SDS011;55559;48.898;9.184;2023-07-02T01:54:00;2.20;;;0.80;;
49842;SDS011;55559;48.898;9.184;2023-07-02T01:56:29;1.90;;;0.90;;
49842;SDS011;55559;48.898;9.184;2023-07-02T01:58:57;3.05;;;1.10;;
49842;SDS011;55559;48.898;9.184;2023-07-02T02:01:26;3.25;;;0.80;;
49842;SDS011;55559;48.898;9.184;2023-07-02T02:03:53;2.60;;;1.00;;
49842;SDS011;55559;48.898;9.184;2023-07-02T02:06:20;2.03;;;0.70;;
49842;SDS011;55559;48.898;9.184;2023-07-02T02:08:48;4.38;;;1.00;;
49842;SDS011;55559;48.898;9.184;2023-07-02T02:11:15;3.95;;;0.90;;
49842;SDS011;55559;48.898;9.184;2023-07-02T02:13:44;1.75;;;0.70;;
49842;SDS011;55559;48.898;9.184;2023-07-02T02:16:11;5.50;;;1.10;;
49842;SDS011;55559;48.898;9.184;2023-07-02T02:18:39;2.45;;;1.10;;
49842;SDS011;55559;48.898;9.184;2023-07-02T02:21:06;5.53;;;1.05;;
49842;SDS011;55559;48.898;9.184;2023-07-02T02:23:34;2.08;;;1.05;;
49842;SDS011;55559;48.898;9.184;2023-07-02T02:26:01;2.92;;;0.90;;
49842;SDS011;55559;48.898;9.184;2023-07-02T02:28:29;3.53;;;0.80;;
49842;SDS011;55559;48.898;9.184;2023-07-02T02:30:58;6.97;;;1.00;;
49842;SDS011;55559;48.898;9.184;2023-07-02T02:33:26;8.98;;;0.93;;
49842;SDS011;55559;48.898;9.184;2023-07-02T02:35:53;7.88;;;1.23;;
49842;SDS011;55559;48.898;9.184;2023-07-02T02:38:21;1.98;;;0.80;;
49842;SDS011;55559;48.898;9.184;2023-07-02T02:40:48;7.35;;;0.82;;
49842;SDS011;55559;48.898;9.184;2023-07-02T02:43:19;2.60;;;0.90;;
49842;SDS011;55559;48.898;9.184;2023-07-02T02:45:49;2.65;;;0.90;;
49842;SDS011;55559;48.898;9.184;2023-07-02T02:48:18;2.42;;;0.90;;
49842;SDS011;55559;48.898;9.184;2023-07-02T02:50:47;4.07;;;0.88;;
49842;SDS011;55559;48.898;9.184;2023-07-02T02:53:15;5.80;;;0.85;;
49842;SDS011;55559;48.898;9.184;2023-07-02T02:55:43;1.88;;;0.98;;
49842;SDS011;55559;48.898;9.184;2023-07-02T02:58:10;3.85;;;0.95;;
49842;SDS011;55559;48.898;9.184;2023-07-02T03:00:38;3.58;;;0.90;;
49842;SDS011;55559;48.898;9.184;2023-07-02T03:03:08;5.40;;;0.90;;
49842;SDS011;55559;48.898;9.184;2023-07-02T03:05:36;3.83;;;1.20;;
49842;SDS011;55559;48.898;9.184;2023-07-02T03:08:05;7.03;;;1.58;;
49842;SDS011;55559;48.898;9.184;2023-07-02T03:10:32;5.05;;;1.00;;
49842;SDS011;55559;48.898;9.184;2023-07-02T03:12:59;4.20;;;1.05;;
49842;SDS011;55559;48.898;9.184;2023-07-02T03:15:28;4.43;;;1.30;;
49842;SDS011;55559;48.898;9.184;2023-07-02T03:17:56;3.53;;;1.35;;
49842;SDS011;55559;48.898;9.184;2023-07-02T03:20:23;5.75;;;1.33;;
49842;SDS011;55559;48.898;9.184;2023-07-02T03:22:52;7.13;;;1.35;;
49842;SDS011;55559;48.898;9.184;2023-07-02T03:25:20;8.05;;;1.40;;
49842;SDS011;55559;48.898;9.184;2023-07-02T03:27:47;4.57;;;2.03;;
49842;SDS011;55559;48.898;9.184;2023-07-02T03:30:14;9.80;;;2.38;;
49842;SDS011;55559;48.898;9.184;2023-07-02T03:32:42;9.70;;;2.65;;
49842;SDS011;55559;48.898;9.184;2023-07-02T03:35:09;14.23;;;2.50;;
49842;SDS011;55559;48.898;9.184;2023-07-02T03:37:37;7.65;;;1.95;;
49842;SDS011;55559;48.898;9.184;2023-07-02T03:40:09;10.48;;;2.55;;
49842;SDS011;55559;48.898;9.184;2023-07-02T03:42:36;11.82;;;3.15;;
49842;SDS011;55559;48.898;9.184;2023-07-02T03:45:04;7.30;;;2.53;;
49842;SDS011;55559;48.898;9.184;2023-07-02T03:47:32;5.13;;;1.67;;
49842;SDS011;55559;48.898;9.184;2023-07-02T03:49:59;15.10;;;3.10;;
49842;SDS011;55559;48.898;9.184;2023-07-02T03:52:27;9.88;;;2.03;;
49842;SDS011;55559;48.898;9.184;2023-07-02T03:54:54;9.52;;;2.28;;
49842;SDS011;55559;48.898;9.184;2023-07-02T03:57:23;16.88;;;2.78;;
49842;SDS011;55559;48.898;9.184;2023-07-02T03:59:51;5.72;;;1.95;;
49842;SDS011;55559;48.898;9.184;2023-07-02T04:02:19;16.38;;;2.83;;
49842;SDS011;55559;48.898;9.184;2023-07-02T04:04:47;17.88;;;3.85;;
49842;SDS011;55559;48.898;9.184;2023-07-02T04:07:14;15.70;;;3.40;;
49842;SDS011;55559;48.898;9.184;2023-07-02T04:09:42;10.93;;;2.78;;
49842;SDS011;55559;48.898;9.184;2023-07-02T04:12:09;10.88;;;3.28;;
49842;SDS011;55559;48.898;9.184;2023-07-02T04:14:38;12.68;;;4.65;;
49842;SDS011;55559;48.898;9.184;2023-07-02T04:17:06;10.70;;;3.00;;
49842;SDS011;55559;48.898;9.184;2023-07-02T04:19:33;14.02;;;3.00;;
49842;SDS011;55559;48.898;9.184;2023-07-02T04:22:00;15.43;;;4.25;;
49842;SDS011;55559;48.898;9.184;2023-07-02T04:24:29;18.05;;;3.60;;
49842;SDS011;55559;48.898;9.184;2023-07-02T04:26:56;13.38;;;2.90;;
49842;SDS011;55559;48.898;9.184;2023-07-02T04:29:25;14.10;;;2.92;;
49842;SDS011;55559;48.898;9.184;2023-07-02T04:31:54;14.57;;;3.08;;
49842;SDS011;55559;48.898;9.184;2023-07-02T04:34:22;16.85;;;3.10;;
49842;SDS011;55559;48.898;9.184;2023-07-02T04:36:49;11.77;;;3.72;;
49842;SDS011;55559;48.898;9.184;2023-07-02T04:39:17;15.20;;;3.13;;
49842;SDS011;55559;48.898;9.184;2023-07-02T04:41:43;13.20;;;2.90;;
49842;SDS011;55559;48.898;9.184;2023-07-02T04:44:11;8.77;;;2.60;;
49842;SDS011;55559;48.898;9.184;2023-07-02T04:46:39;12.30;;;2.83;;
49842;SDS011;55559;48.898;9.184;2023-07-02T04:49:08;9.55;;;2.22;;
49842;SDS011;55559;48.898;9.184;2023-07-02T04:51:35;11.18;;;2.03;;
49842;SDS011;55559;48.898;9.184;2023-07-02T04:54:02;6.63;;;2.17;;
49842;SDS011;55559;48.898;9.184;2023-07-02T04:56:30;12.77;;;2.15;;
49842;SDS011;55559;48.898;9.184;2023-07-02T04:58:57;12.23;;;2.22;;
49842;SDS011;55559;48.898;9.184;2023-07-02T05:01:27;10.52;;;2.10;;
49842;SDS011;55559;48.898;9.184;2023-07-02T05:03:55;10.20;;;2.67;;
49842;SDS011;55559;48.898;9.184;2023-07-02T05:06:23;6.35;;;1.70;;
49842;SDS011;55559;48.898;9.184;2023-07-02T05:08:51;9.63;;;1.65;;
49842;SDS011;55559;48.898;9.184;2023-07-02T05:11:19;9.60;;;2.15;;
49842;SDS011;55559;48.898;9.184;2023-07-02T05:13:46;12.13;;;1.77;;
49842;SDS011;55559;48.898;9.184;2023-07-02T05:16:14;8.95;;;2.20;;
49842;SDS011;55559;48.898;9.184;2023-07-02T05:18:41;6.68;;;1.95;;
49842;SDS011;55559;48.898;9.184;2023-07-02T05:21:09;9.95;;;1.63;;
49842;SDS011;55559;48.898;9.184;2023-07-02T05:23:38;10.07;;;1.92;;
49842;SDS011;55559;48.898;9.184;2023-07-02T05:26:05;7.90;;;1.55;;
49842;SDS011;55559;48.898;9.184;2023-07-02T05:28:33;8.65;;;1.92;;
49842;SDS011;55559;48.898;9.184;2023-07-02T05:31:00;5.43;;;2.05;;
49842;SDS011;55559;48.898;9.184;2023-07-02T05:33:27;10.88;;;1.65;;
49842;SDS011;55559;48.898;9.184;2023-07-02T05:35:56;9.40;;;1.92;;
49842;SDS011;55559;48.898;9.184;2023-07-02T05:38:24;14.05;;;2.42;;
49842;SDS011;55559;48.898;9.184;2023-07-02T05:40:53;9.15;;;2.28;;
49842;SDS011;55559;48.898;9.184;2023-07-02T05:43:20;8.40;;;3.08;;
49842;SDS011;55559;48.898;9.184;2023-07-02T05:45:49;13.13;;;3.15;;
49842;SDS011;55559;48.898;9.184;2023-07-02T05:48:17;16.65;;;3.33;;
49842;SDS011;55559;48.898;9.184;2023-07-02T05:50:45;11.73;;;3.05;;
49842;SDS011;55559;48.898;9.184;2023-07-02T05:53:12;8.32;;;1.90;;
49842;SDS011;55559;48.898;9.184;2023-07-02T05:55:40;12.82;;;3.28;;
49842;SDS011;55559;48.898;9.184;2023-07-02T05:58:10;11.95;;;2.70;;
49842;SDS011;55559;48.898;9.184;2023-07-02T06:00:38;13.45;;;4.35;;
49842;SDS011;55559;48.898;9.184;2023-07-02T06:03:07;12.80;;;4.03;;
49842;SDS011;55559;48.898;9.184;2023-07-02T06:05:34;16.92;;;5.20;;
49842;SDS011;55559;48.898;9.184;2023-07-02T06:08:01;15.10;;;4.47;;
49842;SDS011;55559;48.898;9.184;2023-07-02T06:10:29;15.15;;;5.07;;
49842;SDS011;55559;48.898;9.184;2023-07-02T06:12:56;14.68;;;3.75;;
49842;SDS011;55559;48.898;9.184;2023-07-02T06:15:25;12.75;;;3.55;;
49842;SDS011;55559;48.898;9.184;2023-07-02T06:17:53;11.55;;;3.72;;
49842;SDS011;55559;48.898;9.184;2023-07-02T06:20:20;8.85;;;3.55;;
49842;SDS011;55559;48.898;9.184;2023-07-02T06:22:47;9.82;;;2.05;;
49842;SDS011;55559;48.898;9.184;2023-07-02T06:25:15;12.55;;;3.08;;
49842;SDS011;55559;48.898;9.184;2023-07-02T06:27:42;15.35;;;4.05;;
49842;SDS011;55559;48.898;9.184;2023-07-02T06:30:10;9.65;;;3.28;;
49842;SDS011;55559;48.898;9.184;2023-07-02T06:32:39;8.75;;;3.58;;
49842;SDS011;55559;48.898;9.184;2023-07-02T06:35:07;9.40;;;3.70;;
49842;SDS011;55559;48.898;9.184;2023-07-02T06:37:35;13.48;;;4.05;;
49842;SDS011;55559;48.898;9.184;2023-07-02T06:40:03;8.48;;;3.38;;
49842;SDS011;55559;48.898;9.184;2023-07-02T06:42:31;12.65;;;4.38;;
49842;SDS011;55559;48.898;9.184;2023-07-02T06:45:01;14.48;;;4.40;;
49842;SDS011;55559;48.898;9.184;2023-07-02T06:47:29;10.57;;;4.40;;
49842;SDS011;55559;48.898;9.184;2023-07-02T06:49:57;9.63;;;3.80;;
49842;SDS011;55559;48.898;9.184;2023-07-02T06:52:25;10.05;;;3.72;;
49842;SDS011;55559;48.898;9.184;2023-07-02T06:54:52;9.60;;;3.40;;
49842;SDS011;55559;48.898;9.184;2023-07-02T06:57:20;13.85;;;4.80;;
49842;SDS011;55559;48.898;9.184;2023-07-02T06:59:48;15.15;;;4.95;;
49842;SDS011;55559;48.898;9.184;2023-07-02T07:02:16;13.65;;;3.83;;
49842;SDS011;55559;48.898;9.184;2023-07-02T07:04:44;10.98;;;4.72;;
49842;SDS011;55559;48.898;9.184;2023-07-02T07:07:13;8.98;;;4.15;;
49842;SDS011;55559;48.898;9.184;2023-07-02T07:09:40;10.68;;;4.05;;
49842;SDS011;55559;48.898;9.184;2023-07-02T07:12:08;16.17;;;4.47;;
49842;SDS011;55559;48.898;9.184;2023-07-02T07:14:35;14.85;;;4.55;;
49842;SDS011;55559;48.898;9.184;2023-07-02T07:17:03;14.77;;;4.63;;
49842;SDS011;55559;48.898;9.184;2023-07-02T07:19:30;10.93;;;4.72;;
49842;SDS011;55559;48.898;9.184;2023-07-02T07:21:58;12.88;;;4.93;;
49842;SDS011;55559;48.898;9.184;2023-07-02T07:24:27;15.18;;;6.20;;
49842;SDS011;55559;48.898;9.184;2023-07-02T07:26:54;17.63;;;6.95;;
49842;SDS011;55559;48.898;9.184;2023-07-02T07:29:22;15.35;;;6.70;;
49842;SDS011;55559;48.898;9.184;2023-07-02T07:31:50;15.32;;;5.93;;
49842;SDS011;55559;48.898;9.184;2023-07-02T07:34:17;17.40;;;7.13;;
49842;SDS011;55559;48.898;9.184;2023-07-02T07:36:45;15.55;;;7.05;;
49842;SDS011;55559;48.898;9.184;2023-07-02T07:39:12;19.90;;;7.75;;
49842;SDS011;55559;48.898;9.184;2023-07-02T07:41:41;14.15;;;8.18;;
49842;SDS011;55559;48.898;9.184;2023-07-02T07:44:13;14.85;;;7.80;;
49842;SDS011;55559;48.898;9.184;2023-07-02T07:46:41;23.90;;;8.93;;
49842;SDS011;55559;48.898;9.184;2023-07-02T07:49:08;14.68;;;7.95;;
49842;SDS011;55559;48.898;9.184;2023-07-02T07:51:36;17.38;;;8.35;;
49842;SDS011;55559;48.898;9.184;2023-07-02T07:54:03;19.15;;;8.55;;
49842;SDS011;55559;48.898;9.184;2023-07-02T07:56:31;20.75;;;8.07;;
49842;SDS011;55559;48.898;9.184;2023-07-02T07:59:00;23.33;;;10.57;;
49842;SDS011;55559;48.898;9.184;2023-07-02T08:01:28;25.42;;;10.48;;
49842;SDS011;55559;48.898;9.184;2023-07-02T08:03:55;19.08;;;9.10;;
49842;SDS011;55559;48.898;9.184;2023-07-02T08:06:23;23.90;;;10.35;;
49842;SDS011;55559;48.898;9.184;2023-07-02T08:08:50;24.63;;;8.98;;
49842;SDS011;55559;48.898;9.184;2023-07-02T08:11:17;20.63;;;9.73;;
49842;SDS011;55559;48.898;9.184;2023-07-02T08:13:45;21.30;;;9.98;;
49842;SDS011;55559;48.898;9.184;2023-07-02T08:16:14;26.05;;;10.75;;
49842;SDS011;55559;48.898;9.184;2023-07-02T08:18:42;22.23;;;10.95;;
49842;SDS011;55559;48.898;9.184;2023-07-02T08:21:09;21.50;;;10.55;;
49842;SDS011;55559;48.898;9.184;2023-07-02T08:23:36;21.77;;;10.70;;
49842;SDS011;55559;48.898;9.184;2023-07-02T08:26:04;25.38;;;12.05;;
49842;SDS011;55559;48.898;9.184;2023-07-02T08:28:31;28.52;;;12.65;;
49842;SDS011;55559;48.898;9.184;2023-07-02T08:30:59;30.48;;;11.73;;
49842;SDS011;55559;48.898;9.184;2023-07-02T08:33:27;28.40;;;12.18;;
49842;SDS011;55559;48.898;9.184;2023-07-02T08:35:55;25.45;;;12.10;;
49842;SDS011;55559;48.898;9.184;2023-07-02T08:38:23;24.20;;;11.27;;
49842;SDS011;55559;48.898;9.184;2023-07-02T08:40:50;28.27;;;12.93;;
49842;SDS011;55559;48.898;9.184;2023-07-02T08:43:18;25.33;;;12.90;;
49842;SDS011;55559;48.898;9.184;2023-07-02T08:45:45;32.05;;;13.80;;
49842;SDS011;55559;48.898;9.184;2023-07-02T08:48:13;27.45;;;12.85;;
49842;SDS011;55559;48.898;9.184;2023-07-02T08:50:43;28.23;;;12.32;;
49842;SDS011;55559;48.898;9.184;2023-07-02T08:53:11;27.65;;;12.10;;
49842;SDS011;55559;48.898;9.184;2023-07-02T08:55:38;29.40;;;11.82;;
49842;SDS011;55559;48.898;9.184;2023-07-02T08:58:05;21.85;;;11.05;;
49842;SDS011;55559;48.898;9.184;2023-07-02T09:00:33;26.88;;;12.05;;
49842;SDS011;55559;48.898;9.184;2023-07-02T09:03:10;24.27;;;12.73;;
49842;SDS011;55559;48.898;9.184;2023-07-02T09:05:48;19.77;;;11.35;;
49842;SDS011;55559;48.898;9.184;2023-07-02T09:08:22;21.55;;;12.15;;
49842;SDS011;55559;48.898;9.184;2023-07-02T09:10:51;26.83;;;11.55;;
49842;SDS011;55559;48.898;9.184;2023-07-02T09:13:19;25.75;;;11.60;;
49842;SDS011;55559;48.898;9.184;2023-07-02T09:15:46;22.13;;;11.93;;
49842;SDS011;55559;48.898;9.184;2023-07-02T09:18:14;28.00;;;12.43;;
49842;SDS011;55559;48.898;9.184;2023-07-02T09:20:42;28.55;;;12.35;;
49842;SDS011;55559;48.898;9.184;2023-07-02T09:23:11;21.25;;;12.27;;
49842;SDS011;55559;48.898;9.184;2023-07-02T09:25:39;28.15;;;12.90;;
49842;SDS011;55559;48.898;9.184;2023-07-02T09:28:14;34.67;;;14.00;;
49842;SDS011;55559;48.898;9.184;2023-07-02T09:30:48;28.05;;;13.52;;
49842;SDS011;55559;48.898;9.184;2023-07-02T09:33:20;29.63;;;13.82;;
49842;SDS011;55559;48.898;9.184;2023-07-02T09:35:48;25.77;;;14.55;;
49842;SDS011;55559;48.898;9.184;2023-07-02T09:38:17;35.13;;;14.07;;
49842;SDS011;55559;48.898;9.184;2023-07-02T09:40:46;27.05;;;14.73;;
49842;SDS011;55559;48.898;9.184;2023-07-02T09:46:21;29.30;;;14.43;;
49842;SDS011;55559;48.898;9.184;2023-07-02T09:48:49;32.53;;;14.00;;
49842;SDS011;55559;48.898;9.184;2023-07-02T09:51:17;31.60;;;13.82;;
49842;SDS011;55559;48.898;9.184;2023-07-02T09:53:46;31.45;;;14.27;;
49842;SDS011;55559;48.898;9.184;2023-07-02T09:56:13;31.13;;;14.35;;
49842;SDS011;55559;48.898;9.184;2023-07-02T09:58:41;25.58;;;14.32;;
49842;SDS011;55559;48.898;9.184;2023-07-02T10:01:11;31.70;;;14.40;;
49842;SDS011;55559;48.898;9.184;2023-07-02T10:03:38;27.65;;;14.25;;
49842;SDS011;55559;48.898;9.184;2023-07-02T10:06:06;29.48;;;14.32;;
49842;SDS011;55559;48.898;9.184;2023-07-02T10:08:34;29.00;;;14.65;;
49842;SDS011;55559;48.898;9.184;2023-07-02T10:11:13;29.60;;;14.27;;
49842;SDS011;55559;48.898;9.184;2023-07-02T10:13:40;26.45;;;13.73;;
49842;SDS011;55559;48.898;9.184;2023-07-02T10:16:08;30.95;;;13.88;;
49842;SDS011;55559;48.898;9.184;2023-07-02T10:18:37;29.92;;;14.70;;
49842;SDS011;55559;48.898;9.184;2023-07-02T10:21:14;32.03;;;13.75;;
49842;SDS011;55559;48.898;9.184;2023-07-02T10:23:43;32.17;;;13.27;;
49842;SDS011;55559;48.898;9.184;2023-07-02T10:26:13;29.63;;;14.60;;
49842;SDS011;55559;48.898;9.184;2023-07-02T10:28:43;24.65;;;12.65;;
49842;SDS011;55559;48.898;9.184;2023-07-02T10:31:23;33.40;;;14.02;;
49842;SDS011;55559;48.898;9.184;2023-07-02T10:33:50;29.88;;;14.10;;
49842;SDS011;55559;48.898;9.184;2023-07-02T10:36:18;32.57;;;13.60;;
49842;SDS011;55559;48.898;9.184;2023-07-02T10:38:47;25.88;;;13.70;;
49842;SDS011;55559;48.898;9.184;2023-07-02T10:41:25;33.63;;;14.15;;
49842;SDS011;55559;48.898;9.184;2023-07-02T10:43:53;25.40;;;12.00;;
49842;SDS011;55559;48.898;9.184;2023-07-02T10:46:21;27.75;;;12.60;;
49842;SDS011;55559;48.898;9.184;2023-07-02T10:48:52;22.75;;;14.02;;
49842;SDS011;55559;48.898;9.184;2023-07-02T10:51:21;24.40;;;13.18;;
49842;SDS011;55559;48.898;9.184;2023-07-02T10:53:58;22.75;;;12.60;;
49842;SDS011;55559;48.898;9.184;2023-07-02T10:56:28;27.70;;;12.68;;
49842;SDS011;55559;48.898;9.184;2023-07-02T10:58:55;26.75;;;12.82;;
49842;SDS011;55559;48.898;9.184;2023-07-02T11:01:24;28.77;;;13.77;;
49842;SDS011;55559;48.898;9.184;2023-07-02T11:03:55;28.00;;;13.30;;
49842;SDS011;55559;48.898;9.184;2023-07-02T11:06:23;28.63;;;13.00;;
49842;SDS011;55559;48.898;9.184;2023-07-02T11:08:50;27.10;;;14.10;;
49842;SDS011;55559;48.898;9.184;2023-07-02T11:11:18;26.27;;;13.82;;
49842;SDS011;55559;48.898;9.184;2023-07-02T11:13:47;22.83;;;13.77;;
49842;SDS011;55559;48.898;9.184;2023-07-02T11:16:17;25.33;;;12.00;;
49842;SDS011;55559;48.898;9.184;2023-07-02T11:18:45;25.85;;;12.77;;
49842;SDS011;55559;48.898;9.184;2023-07-02T11:21:13;28.13;;;12.88;;
49842;SDS011;55559;48.898;9.184;2023-07-02T11:23:41;28.30;;;13.93;;
49842;SDS011;55559;48.898;9.184;2023-07-02T11:26:08;27.02;;;11.75;;
49842;SDS011;55559;48.898;9.184;2023-07-02T11:28:36;23.55;;;11.65;;
49842;SDS011;55559;48.898;9.184;2023-07-02T11:31:23;24.25;;;13.73;;
49842;SDS011;55559;48.898;9.184;2023-07-02T11:33:52;28.00;;;13.18;;
49842;SDS011;55559;48.898;9.184;2023-07-02T11:36:20;23.88;;;13.40;;
49842;SDS011;55559;48.898;9.184;2023-07-02T11:38:49;28.05;;;13.32;;
49842;SDS011;55559;48.898;9.184;2023-07-02T11:41:18;22.08;;;12.10;;
49842;SDS011;55559;48.898;9.184;2023-07-02T11:43:46;17.80;;;10.30;;
49842;SDS011;55559;48.898;9.184;2023-07-02T11:46:14;24.27;;;12.18;;
49842;SDS011;55559;48.898;9.184;2023-07-02T11:48:43;27.65;;;12.88;;
49842;SDS011;55559;48.898;9.184;2023-07-02T11:51:10;22.42;;;12.18;;
49842;SDS011;55559;48.898;9.184;2023-07-02T11:53:38;25.33;;;12.32;;
49842;SDS011;55559;48.898;9.184;2023-07-02T11:56:05;23.35;;;12.07;;
49842;SDS011;55559;48.898;9.184;2023-07-02T11:58:33;22.50;;;12.25;;
49842;SDS011;55559;48.898;9.184;2023-07-02T12:01:00;23.33;;;11.52;;
49842;SDS011;55559;48.898;9.184;2023-07-02T12:03:29;28.17;;;12.90;;
49842;SDS011;55559;48.898;9.184;2023-07-02T12:05:57;28.92;;;12.48;;
49842;SDS011;55559;48.898;9.184;2023-07-02T12:08:24;21.20;;;11.77;;
49842;SDS011;55559;48.898;9.184;2023-07-02T12:10:52;23.30;;;12.75;;
49842;SDS011;55559;48.898;9.184;2023-07-02T12:13:19;34.88;;;14.32;;
49842;SDS011;55559;48.898;9.184;2023-07-02T12:15:47;32.05;;;13.45;;
49842;SDS011;55559;48.898;9.184;2023-07-02T12:18:16;27.45;;;12.52;;
49842;SDS011;55559;48.898;9.184;2023-07-02T12:20:45;27.02;;;13.30;;
49842;SDS011;55559;48.898;9.184;2023-07-02T12:23:13;25.65;;;13.18;;
49842;SDS011;55559;48.898;9.184;2023-07-02T12:25:40;22.23;;;12.05;;
49842;SDS011;55559;48.898;9.184;2023-07-02T12:28:08;27.42;;;13.63;;
49842;SDS011;55559;48.898;9.184;2023-07-02T12:30:35;19.95;;;10.90;;
49842;SDS011;55559;48.898;9.184;2023-07-02T12:33:03;27.17;;;12.15;;
49842;SDS011;55559;48.898;9.184;2023-07-02T12:35:30;18.60;;;9.82;;
49842;SDS011;55559;48.898;9.184;2023-07-02T12:37:59;23.33;;;12.20;;
49842;SDS011;55559;48.898;9.184;2023-07-02T12:40:29;25.42;;;12.40;;
49842;SDS011;55559;48.898;9.184;2023-07-02T12:42:56;23.60;;;13.38;;
49842;SDS011;55559;48.898;9.184;2023-07-02T12:45:24;22.20;;;11.90;;
49842;SDS011;55559;48.898;9.184;2023-07-02T12:47:51;22.55;;;12.00;;
49842;SDS011;55559;48.898;9.184;2023-07-02T12:50:19;23.95;;;12.30;;
49842;SDS011;55559;48.898;9.184;2023-07-02T12:52:46;21.45;;;11.07;;
49842;SDS011;55559;48.898;9.184;2023-07-02T12:55:15;24.33;;;12.50;;
49842;SDS011;55559;48.898;9.184;2023-07-02T12:57:42;21.80;;;10.98;;
49842;SDS011;55559;48.898;9.184;2023-07-02T13:00:10;26.15;;;11.95;;
49842;SDS011;55559;48.898;9.184;2023-07-02T13:02:38;26.15;;;12.13;;
49842;SDS011;55559;48.898;9.184;2023-07-02T13:05:06;22.80;;;11.90;;
49842;SDS011;55559;48.898;9.184;2023-07-02T13:07:33;24.10;;;12.57;;
49842;SDS011;55559;48.898;9.184;2023-07-02T13:10:01;23.67;;;12.32;;
49842;SDS011;55559;48.898;9.184;2023-07-02T13:12:30;24.33;;;12.55;;
49842;SDS011;55559;48.898;9.184;2023-07-02T13:14:57;29.80;;;12.35;;
49842;SDS011;55559;48.898;9.184;2023-07-02T13:17:25;23.10;;;13.02;;
49842;SDS011;55559;48.898;9.184;2023-07-02T13:19:52;22.55;;;11.98;;
49842;SDS011;55559;48.898;9.184;2023-07-02T13:22:21;21.75;;;12.75;;
49842;SDS011;55559;48.898;9.184;2023-07-02T13:24:49;19.48;;;12.90;;
49842;SDS011;55559;48.898;9.184;2023-07-02T13:27:16;22.63;;;12.18;;
49842;SDS011;55559;48.898;9.184;2023-07-02T13:29:46;22.73;;;9.15;;
49842;SDS011;55559;48.898;9.184;2023-07-02T13:32:14;21.52;;;10.93;;
49842;SDS011;55559;48.898;9.184;2023-07-02T13:34:41;23.38;;;12.05;;
49842;SDS011;55559;48.898;9.184;2023-07-02T13:37:08;21.40;;;12.50;;
49842;SDS011;55559;48.898;9.184;2023-07-02T13:39:36;26.17;;;10.63;;
49842;SDS011;55559;48.898;9.184;2023-07-02T13:42:03;24.13;;;11.98;;
49842;SDS011;55559;48.898;9.184;2023-07-02T13:44:32;21.85;;;12.00;;
49842;SDS011;55559;48.898;9.184;2023-07-02T13:47:00;21.98;;;12.68;;
49842;SDS011;55559;48.898;9.184;2023-07-02T13:49:28;24.83;;;10.98;;
49842;SDS011;55559;48.898;9.184;2023-07-02T13:51:56;20.67;;;11.95;;
49842;SDS011;55559;48.898;9.184;2023-07-02T13:54:23;22.33;;;10.75;;
49842;SDS011;55559;48.898;9.184;2023-07-02T13:56:51;15.80;;;10.40;;
49842;SDS011;55559;48.898;9.184;2023-07-02T13:59:20;20.98;;;12.05;;
49842;SDS011;55559;48.898;9.184;2023-07-02T14:01:48;23.88;;;11.93;;
49842;SDS011;55559;48.898;9.184;2023-07-02T14:04:16;19.55;;;10.80;;
49842;SDS011;55559;48.898;9.184;2023-07-02T14:06:44;23.00;;;10.65;;
49842;SDS011;55559;48.898;9.184;2023-07-02T14:09:12;24.50;;;13.05;;
49842;SDS011;55559;48.898;9.184;2023-07-02T14:11:40;23.60;;;11.07;;
49842;SDS011;55559;48.898;9.184;2023-07-02T14:14:09;18.30;;;11.23;;
49842;SDS011;55559;48.898;9.184;2023-07-02T14:16:38;16.45;;;10.23;;
49842;SDS011;55559;48.898;9.184;2023-07-02T14:19:06;20.73;;;10.70;;
49842;SDS011;55559;48.898;9.184;2023-07-02T14:21:33;21.17;;;11.13;;
49842;SDS011;55559;48.898;9.184;2023-07-02T14:24:01;22.10;;;11.80;;
49842;SDS011;55559;48.898;9.184;2023-07-02T14:26:29;23.15;;;12.63;;
49842;SDS011;55559;48.898;9.184;2023-07-02T14:28:57;18.42;;;11.07;;
49842;SDS011;55559;48.898;9.184;2023-07-02T14:31:24;23.10;;;10.90;;
49842;SDS011;55559;48.898;9.184;2023-07-02T14:33:53;23.33;;;12.13;;
49842;SDS011;55559;48.898;9.184;2023-07-02T14:36:21;21.42;;;12.10;;
49842;SDS011;55559;48.898;9.184;2023-07-02T14:38:48;18.60;;;10.18;;
49842;SDS011;55559;48.898;9.184;2023-07-02T14:41:16;25.02;;;10.95;;
49842;SDS011;55559;48.898;9.184;2023-07-02T14:43:43;17.42;;;10.38;;
49842;SDS011;55559;48.898;9.184;2023-07-02T14:46:11;22.20;;;11.23;;